Terminal Aerodrome Forecast
Issued by NWS

Current Version | Previous Version | Text Only | Print | Product List | Glossary On
Versions: 1 2 3 4 5 6 7 8 9 10 11 12 13
000
FTUS44 KLIX 300500
TAFGPT
TAF
KGPT 300536Z 3006/3106 16007KT P6SM SCT015 BKN110
      TEMPO 3008/3010 BKN018
     FM301400 15009KT P6SM VCSH BKN030 PROB30 3016/3019 4SM -SHRA
     FM301900 16010KT 6SM -SHRA BKN025 OVC050
      TEMPO 3019/3023 3SM -TSRA BKN025CB
     FM310200 17008KT P6SM BKN045=

USA.gov is the U.S. government's official web portal to all federal, state and local government web resources and services.